デンパサール の空港の天気 - METARとTAF

デンパサール国際空港 ( WADD / DPS ) - インドネシア バリ島デンパサール
飛行場実況気象(Metar)
観測時間02/19 03:00 WITA (02/18 19:00 UTC)
風向・風速南西 2m/s
視程8000m
天気現象弱い雨
少しの雲 雲底高度 490m
全天の4割程度の雲 雲底高度 520m
気温27℃
湿度89%
気圧1011hPa
METARWADD 181900Z 22003KT 8000 -RA FEW016CB SCT017 27/25 Q1011 NOSIG
過去の天気等 Google飛行場航空写真 Wunderground天気予報

過去48時間のMETAR

飛行場予報(TAF)
発表時間: 2/19 01:00 WITA (2/18 17:00 UTC)
予報対象時間: 19日2時 WITA ~ 20日2時 WITA
風向・風速不定 3m/s
視程10km以上
全天の4割程度の雲 雲底高度 520m
19日11時 WITA ~ 19日13時 WITA に徐々に
風向・風速西南西 4m/s
19日14時 WITA ~ 19日18時 WITA に一時的に
少しの積乱雲 雲底高度 460m
全天の4割程度の雲 雲底高度 490m
TAF WADD 181700Z 1818/1918 VRB05KT 9999 SCT017
BECMG 1903/1905 25008KT
TEMPO 1906/1910 FEW015CB SCT016